createdAt,value
2019-01-19T00:01:31.422Z,37.97
2019-01-19T00:04:29.126Z,38.07
2019-01-19T00:07:53.600Z,41.07
2019-01-19T00:11:00.199Z,40.83
2019-01-19T00:14:06.725Z,41.27
2019-01-19T00:17:17.090Z,40.50
2019-01-19T00:20:19.181Z,40.27
2019-01-19T00:23:11.619Z,45.30
2019-01-19T00:26:18.451Z,40.43
2019-01-19T00:29:12.342Z,42.97
2019-01-19T00:32:01.294Z,44.30
2019-01-19T00:35:05.299Z,42.73
2019-01-19T00:38:27.740Z,38.70
2019-01-19T00:41:37.443Z,41.20
2019-01-19T00:44:21.182Z,42.70
2019-01-19T00:47:02.739Z,39.50
2019-01-19T00:49:50.138Z,45.40
2019-01-19T00:52:45.163Z,41.27
2019-01-19T00:55:51.395Z,45.80
2019-01-19T00:58:47.687Z,41.70
2019-01-19T01:02:13.002Z,41.70
2019-01-19T01:04:58.857Z,39.63
2019-01-19T01:08:16.865Z,39.60
2019-01-19T01:10:56.941Z,38.07
2019-01-19T01:14:02.158Z,40.97
2019-01-19T01:16:46.916Z,41.70
2019-01-19T01:19:54.368Z,47.20
2019-01-19T01:22:56.079Z,43.87
2019-01-19T01:25:52.970Z,41.17
2019-01-19T01:29:05.218Z,41.03
2019-01-19T01:32:12.683Z,44.77
2019-01-19T01:35:15.749Z,41.30
2019-01-19T01:38:31.797Z,42.00
2019-01-19T01:41:28.901Z,47.77
2019-01-19T01:44:18.607Z,42.03
2019-01-19T01:47:39.934Z,42.50
2019-01-19T01:50:46.119Z,44.03
2019-01-19T01:54:06.767Z,39.07
2019-01-19T01:56:36.028Z,41.77
2019-01-19T02:00:04.466Z,42.63
2019-01-19T02:02:54.514Z,48.17
2019-01-19T02:05:40.235Z,45.97
2019-01-19T02:08:35.403Z,45.03
2019-01-19T02:11:47.528Z,46.43
2019-01-19T02:14:36.055Z,45.17
2019-01-19T02:17:58.638Z,49.10
2019-01-19T02:21:15.387Z,45.13
2019-01-19T02:23:58.145Z,48.63
2019-01-19T02:26:55.559Z,43.90
2019-01-19T02:29:53.013Z,42.73
2019-01-19T02:32:49.599Z,47.00
2019-01-19T02:35:36.392Z,44.73
2019-01-19T02:38:28.254Z,46.27
2019-01-19T02:41:33.505Z,44.37
2019-01-19T02:44:45.523Z,45.40
2019-01-19T02:47:51.513Z,49.17
2019-01-19T02:50:45.063Z,46.20
2019-01-19T02:53:42.160Z,48.67
2019-01-19T02:57:01.347Z,44.90
2019-01-19T03:00:02.589Z,48.50
2019-01-19T03:02:53.833Z,47.43
2019-01-19T03:06:16.319Z,42.50
2019-01-19T03:09:08.884Z,41.57
2019-01-19T03:12:22.158Z,42.30
2019-01-19T03:15:17.776Z,43.20
2019-01-19T03:18:32.066Z,42.93
2019-01-19T03:21:45.207Z,39.80
2019-01-19T03:24:39.137Z,45.53
2019-01-19T03:27:52.170Z,38.30
2019-01-19T03:31:05.433Z,46.37
2019-01-19T03:34:18.795Z,39.83
2019-01-19T03:37:24.245Z,39.13
2019-01-19T03:40:31.658Z,43.40
2019-01-19T03:43:51.192Z,39.40
2019-01-19T03:46:47.486Z,40.63
2019-01-19T03:49:33.252Z,38.33
2019-01-19T03:52:43.122Z,37.83
2019-01-19T03:55:53.346Z,42.40
2019-01-19T03:58:54.125Z,35.83
2019-01-19T04:01:51.453Z,34.70
2019-01-19T04:05:06.501Z,41.00
2019-01-19T04:08:01.881Z,38.33
2019-01-19T04:10:49.863Z,48.70
2019-01-19T04:14:13.501Z,34.60
2019-01-19T04:17:21.000Z,37.97
2019-01-19T04:20:25.973Z,40.40
2019-01-19T04:22:59.817Z,31.90
2019-01-19T04:25:48.855Z,32.43
2019-01-19T04:28:20.486Z,33.73
2019-01-19T04:30:49.814Z,33.70
2019-01-19T04:33:19.179Z,29.97
2019-01-19T04:35:48.422Z,32.47
2019-01-19T04:38:17.731Z,29.57
2019-01-19T04:40:46.948Z,30.53
2019-01-19T04:43:16.169Z,29.33
2019-01-19T04:45:45.665Z,28.80
2019-01-19T04:48:15.728Z,29.33
2019-01-19T04:50:45.039Z,29.17
2019-01-19T04:53:14.207Z,26.47
2019-01-19T04:55:43.494Z,24.37
2019-01-19T04:58:12.694Z,25.33
2019-01-19T05:00:41.995Z,24.90
2019-01-19T05:03:11.227Z,24.17
2019-01-19T05:05:40.563Z,24.13
2019-01-19T05:08:09.703Z,22.80
2019-01-19T05:10:38.867Z,23.60
2019-01-19T05:13:08.033Z,23.27
2019-01-19T05:15:37.335Z,21.67
2019-01-19T05:18:07.079Z,23.63
2019-01-19T05:20:36.325Z,21.13
2019-01-19T05:23:05.491Z,23.20
2019-01-19T05:25:34.773Z,21.70
2019-01-19T05:28:04.761Z,22.03
2019-01-19T05:30:34.050Z,20.93
2019-01-19T05:33:03.339Z,20.63
2019-01-19T05:35:32.483Z,19.57
2019-01-19T05:38:01.974Z,18.73
2019-01-19T05:40:31.459Z,18.63
2019-01-19T05:43:00.665Z,18.63
2019-01-19T05:45:29.940Z,21.87
2019-01-19T05:47:59.159Z,17.03
2019-01-19T05:50:28.407Z,18.43
2019-01-19T05:52:57.672Z,19.17
2019-01-19T05:55:27.029Z,19.43
2019-01-19T05:57:56.218Z,19.50
2019-01-19T06:00:36.610Z,26.63
2019-01-19T06:03:06.365Z,20.17
2019-01-19T06:05:36.789Z,21.57
2019-01-19T06:08:06.043Z,18.37
2019-01-19T06:10:35.401Z,22.10
2019-01-19T06:13:04.871Z,18.40
2019-01-19T06:15:34.126Z,20.03
2019-01-19T06:18:03.505Z,18.70
2019-01-19T06:20:32.815Z,19.20
2019-01-19T06:23:02.079Z,20.63
2019-01-19T06:25:31.356Z,26.50
2019-01-19T06:28:00.608Z,20.73
2019-01-19T06:30:29.815Z,23.53
2019-01-19T06:32:59.163Z,19.10
2019-01-19T06:35:28.411Z,19.77
2019-01-19T06:37:57.668Z,19.63
2019-01-19T06:40:26.924Z,17.90
2019-01-19T06:42:56.187Z,18.60
2019-01-19T06:45:28.552Z,18.93
2019-01-19T06:47:57.817Z,16.47
2019-01-19T06:50:27.056Z,18.67
2019-01-19T06:52:56.373Z,18.30
2019-01-19T06:55:31.087Z,20.40
2019-01-19T06:58:00.308Z,19.20
2019-01-19T07:00:29.645Z,23.17
2019-01-19T07:02:58.950Z,19.33
2019-01-19T07:05:28.125Z,18.63
2019-01-19T07:07:57.392Z,23.80
2019-01-19T07:10:27.531Z,17.80
2019-01-19T07:12:56.703Z,18.27
2019-01-19T07:15:25.990Z,18.00
2019-01-19T07:17:55.281Z,20.80
2019-01-19T07:20:31.004Z,17.70
2019-01-19T07:23:00.430Z,18.33
2019-01-19T07:25:29.708Z,19.20
2019-01-19T07:27:59.051Z,20.50
2019-01-19T07:30:28.304Z,19.20
2019-01-19T07:32:57.510Z,15.93
2019-01-19T07:35:26.689Z,16.17
2019-01-19T07:37:55.949Z,18.27
2019-01-19T07:40:25.166Z,17.47
2019-01-19T07:42:58.035Z,17.20
2019-01-19T07:45:27.295Z,18.57
2019-01-19T07:47:56.646Z,16.20
2019-01-19T07:50:25.778Z,21.53
2019-01-19T07:52:54.956Z,15.87
2019-01-19T07:55:24.188Z,18.67
2019-01-19T07:57:53.376Z,15.57
2019-01-19T08:00:25.312Z,14.87
2019-01-19T08:02:54.597Z,15.03
2019-01-19T08:05:23.931Z,11.57
2019-01-19T08:07:53.119Z,10.07
2019-01-19T08:10:22.297Z,12.00
2019-01-19T08:12:51.615Z,13.87
2019-01-19T08:15:22.851Z,11.93
2019-01-19T08:17:52.114Z,12.70
2019-01-19T08:20:21.361Z,11.07
2019-01-19T08:22:50.690Z,11.33
2019-01-19T08:25:19.889Z,10.17
2019-01-19T08:27:49.136Z,11.03
2019-01-19T08:30:26.349Z,11.00
2019-01-19T08:32:55.544Z,9.17
2019-01-19T08:35:24.964Z,10.10
2019-01-19T08:37:54.251Z,9.30
2019-01-19T08:40:25.959Z,9.83
2019-01-19T08:43:02.953Z,10.50
2019-01-19T08:45:32.190Z,9.23
2019-01-19T08:48:02.275Z,9.30
2019-01-19T08:50:31.467Z,10.10
2019-01-19T08:53:00.752Z,9.70
2019-01-19T08:55:29.959Z,10.23
2019-01-19T08:57:59.241Z,11.40
2019-01-19T09:00:28.547Z,10.30
2019-01-19T09:02:57.877Z,8.93
2019-01-19T09:05:27.174Z,9.67
2019-01-19T09:07:56.379Z,9.43
2019-01-19T09:10:25.667Z,9.77
2019-01-19T09:12:54.839Z,8.57
2019-01-19T09:15:24.709Z,12.13
2019-01-19T09:17:53.977Z,8.60
2019-01-19T09:20:23.262Z,8.67
2019-01-19T09:22:56.384Z,9.77
2019-01-19T09:25:25.577Z,7.77
2019-01-19T09:27:54.864Z,7.40
2019-01-19T09:30:24.025Z,7.13
2019-01-19T09:32:53.383Z,6.20
2019-01-19T09:35:22.552Z,8.20
2019-01-19T09:37:51.790Z,8.33
2019-01-19T09:40:21.166Z,5.77
2019-01-19T09:42:50.846Z,6.53
2019-01-19T09:45:20.158Z,6.17
2019-01-19T09:47:49.308Z,6.07
2019-01-19T09:50:18.753Z,5.67
2019-01-19T09:52:48.012Z,5.43
2019-01-19T09:55:17.232Z,5.57
2019-01-19T09:57:46.670Z,8.93
2019-01-19T10:00:16.963Z,5.47
2019-01-19T10:02:46.287Z,5.97
2019-01-19T10:05:18.223Z,6.40
2019-01-19T10:07:48.733Z,4.87
2019-01-19T10:10:18.236Z,4.97
2019-01-19T10:12:47.467Z,5.17
2019-01-19T10:15:17.026Z,9.77
2019-01-19T10:17:46.392Z,6.43
2019-01-19T10:20:18.282Z,7.50
2019-01-19T10:22:47.566Z,6.37
2019-01-19T10:25:16.856Z,6.17
2019-01-19T10:27:46.286Z,7.57
2019-01-19T10:30:20.624Z,5.80
2019-01-19T10:32:49.905Z,5.50
2019-01-19T10:35:19.173Z,5.50
2019-01-19T10:37:55.682Z,6.60
2019-01-19T10:40:19.576Z,7.40
2019-01-19T10:42:48.852Z,8.07
2019-01-19T10:45:20.395Z,8.47
2019-01-19T10:47:50.104Z,9.80
2019-01-19T10:50:19.466Z,11.83
2019-01-19T10:52:48.734Z,7.20
2019-01-19T10:55:19.342Z,9.83
2019-01-19T10:57:48.704Z,9.10
2019-01-19T11:00:20.411Z,11.83
2019-01-19T11:02:49.758Z,7.67
2019-01-19T11:05:19.148Z,7.87
2019-01-19T11:07:49.220Z,7.00
2019-01-19T11:10:23.014Z,6.07
2019-01-19T11:12:52.293Z,8.93
2019-01-19T11:15:21.604Z,8.87
2019-01-19T11:17:51.210Z,10.37
2019-01-19T11:20:25.777Z,8.60
2019-01-19T11:22:55.803Z,7.93
2019-01-19T11:25:25.058Z,8.60
2019-01-19T11:27:55.302Z,6.20
2019-01-19T11:30:29.189Z,7.10
2019-01-19T11:32:59.345Z,6.93
2019-01-19T11:35:28.682Z,8.60
2019-01-19T11:37:57.976Z,6.30
2019-01-19T11:40:37.760Z,7.73
2019-01-19T11:43:08.754Z,6.37
2019-01-19T11:45:38.248Z,7.73
2019-01-19T11:48:07.572Z,6.70
2019-01-19T11:50:36.762Z,5.60
2019-01-19T11:53:06.045Z,7.03
2019-01-19T11:55:35.297Z,9.97
2019-01-19T11:58:06.164Z,8.17
2019-01-19T12:00:37.555Z,8.93
2019-01-19T12:03:06.916Z,8.33
2019-01-19T12:05:36.567Z,7.87
2019-01-19T12:08:06.689Z,6.93
2019-01-19T12:10:35.842Z,6.13
2019-01-19T12:13:05.006Z,6.73
2019-01-19T12:15:34.253Z,8.00
2019-01-19T12:18:03.499Z,8.10
2019-01-19T12:20:44.502Z,6.20
2019-01-19T12:23:13.802Z,7.93
2019-01-19T12:25:43.060Z,7.63
2019-01-19T12:28:31.469Z,6.57
2019-01-19T12:31:00.801Z,7.40
2019-01-19T12:33:30.033Z,12.33
2019-01-19T12:35:59.328Z,6.87
2019-01-19T12:38:28.657Z,9.17
2019-01-19T12:40:57.994Z,6.80
2019-01-19T12:43:27.158Z,7.43
2019-01-19T12:45:59.344Z,8.17
2019-01-19T12:48:28.582Z,10.00
2019-01-19T12:50:57.804Z,9.83
2019-01-19T12:53:27.462Z,8.87
2019-01-19T12:55:56.723Z,9.03
2019-01-19T12:58:25.948Z,9.23
2019-01-19T13:00:55.141Z,8.57
2019-01-19T13:03:24.600Z,8.70
2019-01-19T13:06:09.295Z,10.53
2019-01-19T13:08:38.617Z,12.07
2019-01-19T13:11:29.096Z,10.00
2019-01-19T13:14:03.269Z,9.10
2019-01-19T13:16:49.796Z,8.43
2019-01-19T13:19:43.154Z,10.77
2019-01-19T13:22:36.055Z,10.70
2019-01-19T13:25:36.164Z,8.73
2019-01-19T13:28:26.966Z,9.83
2019-01-19T13:31:34.255Z,8.93
2019-01-19T13:34:47.423Z,9.17
2019-01-19T13:37:53.540Z,11.20
2019-01-19T13:41:02.624Z,9.27
2019-01-19T13:44:14.980Z,9.90
2019-01-19T13:47:28.449Z,9.20
2019-01-19T13:50:31.194Z,9.77
2019-01-19T13:53:28.412Z,12.23
2019-01-19T13:56:34.411Z,11.20
2019-01-19T13:59:27.642Z,9.73
2019-01-19T14:02:22.130Z,12.47
2019-01-19T14:05:22.504Z,11.10
2019-01-19T14:08:37.346Z,11.93
2019-01-19T14:11:28.952Z,12.83
2019-01-19T14:14:25.778Z,11.57
2019-01-19T14:17:12.509Z,12.23
2019-01-19T14:20:09.443Z,16.27
2019-01-19T14:23:05.508Z,12.27
2019-01-19T14:26:06.349Z,10.53
2019-01-19T14:29:17.217Z,14.23
2019-01-19T14:32:14.796Z,13.57
2019-01-19T14:35:04.954Z,14.17
2019-01-19T14:38:42.803Z,11.17
2019-01-19T14:41:48.879Z,11.47
2019-01-19T14:44:49.516Z,11.60
2019-01-19T14:47:34.481Z,11.97
2019-01-19T14:50:32.024Z,13.70
2019-01-19T14:53:41.686Z,14.40
2019-01-19T14:56:48.196Z,13.47
2019-01-19T15:00:03.919Z,11.97
2019-01-19T15:03:19.608Z,12.87
2019-01-19T15:06:09.874Z,13.30
2019-01-19T15:09:16.193Z,11.83
2019-01-19T15:12:47.714Z,11.87
2019-01-19T15:15:57.791Z,12.63
2019-01-19T15:19:13.359Z,11.63
2019-01-19T15:22:07.543Z,11.60
2019-01-19T15:25:05.455Z,14.43
2019-01-19T15:28:20.896Z,13.93
2019-01-19T15:31:13.247Z,12.33
2019-01-19T15:34:20.397Z,14.80
2019-01-19T15:38:01.185Z,14.10
2019-01-19T15:41:10.033Z,11.77
2019-01-19T15:44:02.500Z,16.17
2019-01-19T15:47:16.739Z,13.90
2019-01-19T15:50:39.145Z,15.60
2019-01-19T15:53:30.807Z,19.43
2019-01-19T15:56:49.252Z,12.60
2019-01-19T16:00:05.274Z,13.90
2019-01-19T16:03:14.109Z,14.53
2019-01-19T16:06:27.614Z,15.80
2019-01-19T16:09:37.964Z,13.73
2019-01-19T16:12:57.699Z,14.90
2019-01-19T16:16:19.348Z,14.23
2019-01-19T16:20:00.255Z,16.87
2019-01-19T16:23:17.376Z,17.40
2019-01-19T16:26:14.752Z,16.83
2019-01-19T16:29:24.939Z,14.87
2019-01-19T16:32:31.127Z,14.60
2019-01-19T16:35:28.510Z,16.00
2019-01-19T16:38:35.307Z,14.83
2019-01-19T16:41:41.479Z,25.13
2019-01-19T16:45:10.028Z,16.83
2019-01-19T16:48:07.019Z,17.63
2019-01-19T16:51:11.650Z,22.07
2019-01-19T16:54:04.255Z,14.90
2019-01-19T16:57:20.815Z,17.17
2019-01-19T17:00:11.761Z,18.67
2019-01-19T17:03:09.662Z,18.23
2019-01-19T17:05:48.181Z,19.37
2019-01-19T17:08:48.860Z,17.50
2019-01-19T17:11:54.956Z,17.13
2019-01-19T17:15:11.239Z,18.30
2019-01-19T17:18:13.636Z,20.50
2019-01-19T17:21:08.962Z,19.90
2019-01-19T17:24:09.532Z,20.10
2019-01-19T17:27:19.790Z,19.97
2019-01-19T17:30:15.561Z,21.93
2019-01-19T17:33:44.232Z,19.70
2019-01-19T17:36:43.320Z,22.03
2019-01-19T17:39:56.487Z,22.23
2019-01-19T17:43:12.401Z,23.90
2019-01-19T17:46:17.700Z,22.47
2019-01-19T17:49:28.061Z,27.07
2019-01-19T17:52:40.524Z,23.67
2019-01-19T17:55:22.859Z,24.43
2019-01-19T17:58:42.116Z,21.27
2019-01-19T18:01:48.486Z,24.00
2019-01-19T18:04:43.001Z,22.50
2019-01-19T18:07:56.997Z,21.40
2019-01-19T18:11:06.763Z,22.13
2019-01-19T18:14:14.348Z,31.53
2019-01-19T18:17:26.640Z,25.70
2019-01-19T18:20:21.193Z,21.07
2019-01-19T18:23:33.849Z,20.93
2019-01-19T18:26:52.968Z,22.80
2019-01-19T18:30:12.080Z,22.17
2019-01-19T18:33:12.592Z,21.80
2019-01-19T18:36:08.656Z,22.47
2019-01-19T18:38:57.456Z,21.77
2019-01-19T18:42:32.001Z,30.43
2019-01-19T18:45:26.634Z,34.63
2019-01-19T18:48:55.098Z,35.73
2019-01-19T18:51:58.773Z,32.90
2019-01-19T18:54:48.177Z,37.23
2019-01-19T18:57:53.044Z,30.90
2019-01-19T19:00:53.702Z,24.20
2019-01-19T19:04:34.530Z,21.80
2019-01-19T19:07:32.381Z,23.60
2019-01-19T19:10:41.225Z,25.57
2019-01-19T19:13:48.667Z,21.47
2019-01-19T19:16:59.404Z,24.67
2019-01-19T19:20:14.772Z,37.23
2019-01-19T19:23:10.506Z,35.77
2019-01-19T19:26:12.772Z,37.77
2019-01-19T19:29:35.026Z,32.37
2019-01-19T19:32:34.604Z,29.93
2019-01-19T19:35:28.269Z,32.53
2019-01-19T19:38:33.660Z,35.27
2019-01-19T19:41:59.386Z,40.80
2019-01-19T19:45:04.456Z,60.37
2019-01-19T19:48:11.027Z,63.20
2019-01-19T19:51:08.801Z,61.33
2019-01-19T19:53:38.098Z,52.13
2019-01-19T19:56:05.787Z,45.33
2019-01-19T19:58:35.183Z,40.07
2019-01-19T20:01:04.592Z,32.33
2019-01-19T20:03:33.911Z,51.93
2019-01-19T20:06:03.248Z,96.83
2019-01-19T20:08:32.655Z,40.20
2019-01-19T20:11:02.103Z,71.70
2019-01-19T20:13:31.414Z,43.40
2019-01-19T20:16:00.818Z,41.67
2019-01-19T20:18:30.198Z,37.30
2019-01-19T20:20:59.572Z,40.77
2019-01-19T20:23:28.917Z,46.37
2019-01-19T20:25:58.210Z,63.20
2019-01-19T20:28:27.565Z,52.03
2019-01-19T20:30:56.889Z,49.47
2019-01-19T20:33:26.196Z,34.13
2019-01-19T20:35:55.641Z,33.03
2019-01-19T20:38:25.060Z,34.20
2019-01-19T20:40:54.526Z,38.10
2019-01-19T20:43:23.916Z,32.27
2019-01-19T20:45:53.282Z,33.53
2019-01-19T20:48:23.004Z,34.33
2019-01-19T20:50:52.426Z,30.67
2019-01-19T20:53:21.697Z,36.30
2019-01-19T20:55:51.104Z,35.43
2019-01-19T20:58:20.467Z,31.90
2019-01-19T21:00:49.846Z,36.27
2019-01-19T21:03:19.211Z,34.03
2019-01-19T21:05:48.564Z,30.27
2019-01-19T21:08:17.906Z,34.27
2019-01-19T21:10:47.185Z,31.73
2019-01-19T21:13:16.596Z,29.17
2019-01-19T21:15:46.016Z,31.50
2019-01-19T21:18:17.876Z,217.80
2019-01-19T21:20:47.246Z,228.53
2019-01-19T21:23:16.571Z,34.77
2019-01-19T21:25:45.947Z,30.87
2019-01-19T21:28:15.450Z,37.50
2019-01-19T21:30:44.811Z,54.73
2019-01-19T21:33:14.854Z,35.00
2019-01-19T21:35:44.242Z,32.67
2019-01-19T21:38:13.692Z,33.03
2019-01-19T21:40:43.073Z,33.63
2019-01-19T21:43:12.401Z,32.97
2019-01-19T21:45:41.774Z,32.97
2019-01-19T21:48:14.050Z,35.00
2019-01-19T21:50:43.471Z,35.73
2019-01-19T21:53:12.887Z,36.23
2019-01-19T21:55:42.263Z,35.67
2019-01-19T21:58:11.652Z,37.10
2019-01-19T22:00:41.074Z,30.10
2019-01-19T22:03:10.455Z,33.13
2019-01-19T22:05:39.836Z,28.37
2019-01-19T22:08:09.070Z,32.63
2019-01-19T22:10:38.804Z,30.53
2019-01-19T22:13:08.339Z,32.87
2019-01-19T22:15:37.713Z,35.43
2019-01-19T22:18:07.037Z,29.03
2019-01-19T22:20:37.730Z,31.40
2019-01-19T22:23:07.061Z,29.63
2019-01-19T22:25:36.392Z,24.80
2019-01-19T22:28:05.816Z,27.90
2019-01-19T22:30:35.206Z,29.63
2019-01-19T22:33:04.991Z,26.73
2019-01-19T22:35:34.633Z,26.80
2019-01-19T22:38:04.162Z,28.13
2019-01-19T22:40:33.534Z,29.93
2019-01-19T22:43:05.991Z,32.00
2019-01-19T22:45:35.316Z,31.07
2019-01-19T22:48:04.812Z,27.67
2019-01-19T22:50:34.104Z,35.90
2019-01-19T22:53:03.324Z,27.37
2019-01-19T22:55:32.593Z,30.53
2019-01-19T22:58:01.877Z,32.47
2019-01-19T23:01:06.993Z,31.10
2019-01-19T23:03:40.314Z,29.70
2019-01-19T23:06:09.678Z,32.03
2019-01-19T23:08:39.048Z,29.00
2019-01-19T23:11:08.423Z,30.77
2019-01-19T23:13:37.882Z,34.70
2019-01-19T23:16:07.249Z,32.73
2019-01-19T23:18:36.648Z,37.00
2019-01-19T23:21:05.857Z,31.67
2019-01-19T23:23:35.050Z,30.33
2019-01-19T23:26:04.695Z,31.97
2019-01-19T23:28:33.957Z,29.13
2019-01-19T23:31:03.252Z,29.53
2019-01-19T23:33:32.568Z,31.43
2019-01-19T23:36:01.908Z,30.93
2019-01-19T23:38:31.192Z,28.80
2019-01-19T23:41:00.554Z,29.77
2019-01-19T23:43:30.072Z,29.47
2019-01-19T23:45:59.352Z,32.03
2019-01-19T23:48:28.639Z,45.97
2019-01-19T23:50:57.803Z,33.67
2019-01-19T23:53:26.987Z,29.57
2019-01-19T23:55:56.271Z,30.37
2019-01-19T23:58:25.467Z,30.60
